Time;durP1;ratioP1;P1;durP2;ratioP2;P2;SDS_P1;SDS_P2;PMS_P1;PMS_P2;Temp;Humidity;BMP_temperature;BMP_pressure;BME280_temperature;BME280_humidity;BME280_pressure;Samples;Min_cycle;Max_cycle;Signal;HPM_P1;HPM_P2
2022/09/16 00:01:35;;;;;;;8.48;1.63;;;;;;;14.84;100.00;100609.88;5067807;28;20040;-75
2022/09/16 00:04:02;;;;;;;6.00;1.67;;;;;;;14.86;100.00;100615.81;5069311;28;20053;-74
2022/09/16 00:06:29;;;;;;;6.38;1.48;;;;;;;14.88;100.00;100611.38;5060171;28;20060;-74
2022/09/16 00:08:59;;;;;;;10.02;1.85;;;;;;;14.83;100.00;100608.31;5066700;28;20044;-75
2022/09/16 00:11:26;;;;;;;5.20;1.67;;;;;;;14.80;100.00;100609.97;5068728;28;20047;-74
2022/09/16 00:13:52;;;;;;;4.47;1.70;;;;;;;14.86;100.00;100602.69;5068076;28;20068;-75
2022/09/16 00:16:23;;;;;;;6.15;1.67;;;;;;;14.87;100.00;100603.44;5068444;28;20045;-76
2022/09/16 00:18:58;;;;;;;5.78;1.52;;;;;;;14.72;100.00;100602.94;5069016;28;20467;-75
2022/09/16 00:21:26;;;;;;;6.60;1.58;;;;;;;14.79;100.00;100604.81;5067258;28;20053;-74
2022/09/16 00:23:55;;;;;;;9.13;1.65;;;;;;;14.73;100.00;100607.31;5067475;28;20059;-75
2022/09/16 00:26:22;;;;;;;10.45;1.70;;;;;;;14.76;100.00;100600.91;5068443;28;20441;-76
2022/09/16 00:28:49;;;;;;;6.55;2.33;;;;;;;14.71;100.00;100609.75;5068775;28;20125;-74
2022/09/16 00:31:16;;;;;;;6.22;0.85;;;;;;;14.54;100.00;100607.28;5066878;28;20124;-74
2022/09/16 00:33:43;;;;;;;3.45;1.55;;;;;;;14.58;100.00;100603.22;5068172;28;20098;-74
2022/09/16 00:36:15;;;;;;;3.40;1.20;;;;;;;14.58;100.00;100603.22;5068661;28;20052;-73
2022/09/16 00:38:42;;;;;;;9.70;1.77;;;;;;;14.54;100.00;100596.16;5058181;28;20730;-75
2022/09/16 00:41:15;;;;;;;7.90;1.42;;;;;;;14.54;100.00;100596.94;5057071;28;20044;-74
2022/09/16 00:43:51;;;;;;;7.10;1.50;;;;;;;14.51;100.00;100606.16;5068280;28;20045;-75
2022/09/16 00:46:37;;;;;;;3.78;1.27;;;;;;;14.48;100.00;100604.22;5068418;28;20056;-75
2022/09/16 00:49:12;;;;;;;1.85;1.15;;;;;;;14.50;100.00;100606.56;5062763;28;20394;-76
2022/09/16 00:51:39;;;;;;;3.00;1.10;;;;;;;14.46;100.00;100600.28;5064817;28;20502;-75
2022/09/16 00:54:08;;;;;;;9.85;1.70;;;;;;;14.51;100.00;100597.78;5053830;28;20060;-74
2022/09/16 00:56:39;;;;;;;6.85;1.58;;;;;;;14.51;100.00;100599.81;5068064;28;20059;-74
2022/09/16 00:59:20;;;;;;;5.07;1.63;;;;;;;14.49;100.00;100599.44;5068408;28;20044;-72
2022/09/16 01:01:48;;;;;;;4.32;1.27;;;;;;;14.46;100.00;100603.06;5066827;28;20097;-75
2022/09/16 01:04:26;;;;;;;11.25;2.05;;;;;;;14.40;100.00;100601.97;5066720;28;20110;-76
2022/09/16 01:06:53;;;;;;;7.03;1.45;;;;;;;14.47;100.00;100608.22;5067670;28;20052;-74
2022/09/16 01:09:21;;;;;;;4.55;1.50;;;;;;;14.39;100.00;100601.22;5064432;28;20047;-74
2022/09/16 01:11:48;;;;;;;6.47;2.28;;;;;;;14.39;100.00;100606.00;5067454;28;20048;-74
2022/09/16 01:17:09;;;;;;;6.97;1.58;;;;;;;14.35;100.00;100606.03;5060424;28;20051;-74
2022/09/16 01:20:10;;;;;;;9.38;1.83;;;;;;;14.36;100.00;100601.28;5068043;28;20045;-74
2022/09/16 01:23:01;;;;;;;5.65;1.58;;;;;;;14.37;100.00;100614.75;5063791;28;20764;-74
2022/09/16 01:26:07;;;;;;;11.38;2.28;;;;;;;14.35;100.00;100610.84;5067390;28;20044;-75
2022/09/16 01:28:52;;;;;;;;;;;;;;;14.38;100.00;100610.00;5064967;28;20052;-74
2022/09/16 01:31:39;;;;;;;10.38;1.80;;;;;;;14.35;100.00;100610.84;5066777;28;20289;-74
2022/09/16 01:34:36;;;;;;;7.70;1.70;;;;;;;14.31;100.00;100610.88;5067546;28;20469;-72
2022/09/16 01:37:24;;;;;;;3.67;1.42;;;;;;;14.31;100.00;100610.88;5065574;28;20072;-75
2022/09/16 01:39:52;;;;;;;4.80;1.00;;;;;;;14.25;100.00;100609.81;5066939;28;20067;-74
2022/09/16 01:42:27;;;;;;;5.15;1.48;;;;;;;14.27;100.00;100609.38;5065075;28;20764;-74
2022/09/16 01:45:05;;;;;;;8.00;1.70;;;;;;;14.28;100.00;100616.53;5066374;28;20044;-75
2022/09/16 01:47:40;;;;;;;13.20;2.42;;;;;;;14.21;100.00;100603.47;5067766;28;20500;-74
2022/09/16 01:50:13;;;;;;;6.47;1.52;;;;;;;14.22;100.00;100602.31;5067195;28;20044;-75
2022/09/16 01:52:54;;;;;;;9.57;2.10;;;;;;;14.25;100.00;100607.03;5064956;28;20044;-74
2022/09/16 01:55:27;;;;;;;8.02;2.15;;;;;;;14.25;100.00;100607.03;5060419;28;20055;-75
2022/09/16 01:58:12;;;;;;;7.28;2.22;;;;;;;14.24;100.00;100605.44;5067383;28;20052;-74
2022/09/16 02:00:42;;;;;;;8.52;2.10;;;;;;;14.26;100.00;100594.69;5067064;28;20090;-74
2022/09/16 02:03:17;;;;;;;3.20;1.60;;;;;;;14.27;100.00;100599.03;5066766;28;20040;-74
2022/09/16 02:05:45;;;;;;;;;;;;;;;14.22;100.00;100598.72;5068113;28;20063;-74
2022/09/16 02:08:16;;;;;;;8.25;2.13;;;;;;;14.37;100.00;100600.84;5065128;28;20312;-75
2022/09/16 02:10:50;;;;;;;13.07;3.13;;;;;;;14.43;100.00;100606.72;5067836;28;20048;-74
2022/09/16 02:13:23;;;;;;;8.65;1.95;;;;;;;14.46;100.00;100606.66;5060775;28;20066;-74
2022/09/16 02:15:52;;;;;;;10.93;1.92;;;;;;;14.46;100.00;100598.31;5067535;28;20051;-75
2022/09/16 02:18:25;;;;;;;12.35;2.05;;;;;;;14.44;100.00;100592.38;5059925;28;20141;-74
2022/09/16 02:20:53;;;;;;;10.82;3.38;;;;;;;14.47;100.00;100596.28;5067433;28;20422;-75
2022/09/16 02:23:24;;;;;;;9.10;1.85;;;;;;;14.48;100.00;100595.84;5058329;28;20064;-75
2022/09/16 02:25:53;;;;;;;7.13;1.80;;;;;;;14.49;100.00;100591.88;5067564;28;20056;-74
2022/09/16 02:28:32;;;;;;;7.10;1.65;;;;;;;14.43;100.00;100590.00;5065095;28;20044;-74
2022/09/16 02:31:02;;;;;;;10.07;1.98;;;;;;;14.48;100.00;100597.88;5070273;28;20501;-74
2022/09/16 02:33:43;;;;;;;5.88;1.52;;;;;;;14.48;100.00;100592.31;5070846;28;20132;-74
2022/09/16 02:36:16;;;;;;;7.65;1.75;;;;;;;14.44;100.00;100586.78;5071177;28;20060;-73
2022/09/16 02:38:50;;;;;;;7.60;1.52;;;;;;;14.40;100.00;100593.63;5070854;28;20056;-74
2022/09/16 02:41:17;;;;;;;8.37;2.10;;;;;;;14.46;100.00;100589.16;5069816;28;20052;-74
2022/09/16 02:43:44;;;;;;;8.40;2.15;;;;;;;14.42;100.00;100592.03;5070102;28;20298;-74
2022/09/16 02:47:08;;;;;;;8.73;2.45;;;;;;;14.33;100.00;100580.66;5065815;28;20082;-75
2022/09/16 02:49:46;;;;;;;5.38;1.40;;;;;;;14.35;100.00;100572.63;5027555;28;20068;-74
2022/09/16 02:52:27;;;;;;;10.77;1.90;;;;;;;14.27;100.00;100575.97;5026540;28;20056;-75
2022/09/16 02:55:04;;;;;;;2.22;0.98;;;;;;;14.21;100.00;100575.66;5028021;28;20465;-75
2022/09/16 02:57:31;;;;;;;8.60;1.60;;;;;;;14.19;100.00;100566.97;5019922;28;20137;-74
2022/09/16 02:59:58;;;;;;;7.55;1.77;;;;;;;14.29;100.00;100584.69;5026837;28;20050;-73
2022/09/16 03:02:24;;;;;;;9.55;1.75;;;;;;;14.28;100.00;100577.56;5026207;28;20084;-73
2022/09/16 03:04:51;;;;;;;8.65;1.50;;;;;;;14.16;100.00;100576.16;5027435;28;20053;-74
2022/09/16 03:07:17;;;;;;;8.75;2.05;;;;;;;14.28;100.00;100578.34;5027495;28;20057;-75
2022/09/16 03:09:48;;;;;;;5.72;1.65;;;;;;;14.20;100.00;100576.06;5025580;28;20049;-75
2022/09/16 03:12:36;;;;;;;12.82;1.95;;;;;;;14.26;100.00;100569.66;5026739;28;20073;-74
2022/09/16 03:15:30;;;;;;;6.68;2.05;;;;;;;14.20;100.00;100568.53;5032357;28;20566;-75
2022/09/16 03:18:00;;;;;;;12.95;1.98;;;;;;;14.16;100.00;100567.81;5022321;28;20177;-75
2022/09/16 03:20:42;;;;;;;4.97;1.60;;;;;;;14.08;100.00;100560.00;5049727;28;20114;-74
2022/09/16 03:23:25;;;;;;;5.20;1.33;;;;;;;14.11;100.00;100565.50;5069251;28;20037;-75
2022/09/16 03:26:14;;;;;;;5.72;1.75;;;;;;;14.11;100.00;100561.94;5064333;28;20055;-74
2022/09/16 03:28:53;;;;;;;9.52;1.67;;;;;;;14.09;100.00;100567.94;5069203;28;20413;-74
2022/09/16 03:31:28;;;;;;;8.13;2.10;;;;;;;14.15;100.00;100568.25;5069140;28;20044;-74
2022/09/16 03:34:43;;;;;;;7.57;1.63;;;;;;;14.19;100.00;100577.31;5070054;28;20127;-74
2022/09/16 03:37:14;;;;;;;9.88;1.90;;;;;;;14.19;100.00;100568.94;5022157;28;20401;-74
2022/09/16 03:39:41;;;;;;;8.50;1.90;;;;;;;14.20;100.00;100571.31;5069647;28;20048;-74
2022/09/16 03:42:10;;;;;;;12.77;2.22;;;;;;;14.21;100.00;100574.88;5068623;28;20491;-74
2022/09/16 03:44:39;;;;;;;12.10;2.10;;;;;;;14.17;100.00;100566.59;5069601;28;20094;-72
2022/09/16 03:47:07;;;;;;;14.50;2.45;;;;;;;14.12;100.00;100566.28;5069264;28;20053;-75
2022/09/16 03:49:34;;;;;;;7.45;2.10;;;;;;;14.15;100.00;100568.25;5062074;28;20390;-75
2022/09/16 03:52:03;;;;;;;11.98;2.10;;;;;;;14.17;100.00;100566.59;5078133;28;20052;-74
2022/09/16 03:54:31;;;;;;;11.60;2.70;;;;;;;14.21;100.00;100567.31;5069160;28;20052;-74
2022/09/16 03:56:59;;;;;;;11.23;1.90;;;;;;;14.17;100.00;100569.38;5069935;28;20079;-75
2022/09/16 03:59:26;;;;;;;8.02;2.03;;;;;;;14.15;100.00;100568.25;5069198;28;20083;-75
2022/09/16 04:01:53;;;;;;;11.02;2.33;;;;;;;14.18;100.00;100570.94;5067118;28;20052;-74
2022/09/16 04:04:20;;;;;;;13.82;2.08;;;;;;;14.23;100.00;100572.47;5069150;28;20067;-73
2022/09/16 04:06:46;;;;;;;7.75;1.70;;;;;;;14.22;100.00;100568.94;5068709;28;20914;-74
2022/09/16 04:09:14;;;;;;;9.23;1.90;;;;;;;14.18;100.00;100568.16;5059519;28;20055;-74
2022/09/16 04:11:41;;;;;;;9.90;1.80;;;;;;;14.19;100.00;100566.97;5061290;28;20059;-75
2022/09/16 04:14:07;;;;;;;8.63;1.45;;;;;;;14.24;100.00;100565.72;5069256;28;20044;-75
2022/09/16 04:16:34;;;;;;;7.22;1.63;;;;;;;14.28;100.00;100567.22;5069000;28;20084;-76
2022/09/16 04:19:00;;;;;;;7.43;1.92;;;;;;;14.26;100.00;100561.31;5069170;28;20056;-75
2022/09/16 04:21:28;;;;;;;4.90;1.40;;;;;;;14.19;100.00;100571.75;5068217;28;20131;-75
2022/09/16 04:23:54;;;;;;;6.10;1.60;;;;;;;14.26;100.00;100561.31;5068249;28;20041;-74
2022/09/16 04:26:21;;;;;;;9.15;2.20;;;;;;;14.30;100.00;100561.22;5067106;28;20075;-75
2022/09/16 04:28:47;;;;;;;6.50;1.65;;;;;;;14.14;100.00;100564.66;5068526;28;20056;-73
2022/09/16 04:31:14;;;;;;;6.25;2.10;;;;;;;14.21;100.00;100567.31;5067566;28;20048;-73
2022/09/16 04:33:41;;;;;;;8.40;2.30;;;;;;;14.27;100.00;100560.06;5068179;28;20048;-75
2022/09/16 04:36:14;;;;;;;9.23;1.95;;;;;;;14.25;100.00;100553.38;5067685;28;20547;-72
2022/09/16 04:38:42;;;;;;;7.10;2.10;;;;;;;14.25;100.00;100559.75;5067660;28;20044;-76
2022/09/16 04:41:15;;;;;;;10.98;2.92;;;;;;;14.21;100.00;100561.75;5067358;28;20040;-75
2022/09/16 04:43:41;;;;;;;11.45;2.00;;;;;;;14.17;100.00;100561.03;5068746;28;20045;-75
2022/09/16 04:46:08;;;;;;;9.45;1.80;;;;;;;14.13;100.00;100560.31;5068266;28;20114;-75
2022/09/16 04:48:35;;;;;;;7.63;2.25;;;;;;;14.08;100.00;100558.03;5067317;28;20044;-75
2022/09/16 04:51:04;;;;;;;5.85;2.00;;;;;;;14.00;100.00;100559.34;5067715;28;20048;-76
2022/09/16 04:53:32;;;;;;;9.95;2.22;;;;;;;14.06;100.00;100559.63;5068244;28;20095;-75
2022/09/16 04:56:08;;;;;;;7.65;2.30;;;;;;;14.00;100.00;100561.38;5068527;28;20109;-74
2022/09/16 04:58:35;;;;;;;14.38;2.58;;;;;;;14.02;100.00;100553.38;5067386;28;20393;-74
2022/09/16 05:01:11;;;;;;;10.00;2.65;;;;;;;14.03;100.00;100560.50;5067860;28;20420;-72
2022/09/16 05:03:42;;;;;;;9.13;2.53;;;;;;;14.06;100.00;100560.44;5066070;28;20044;-76
2022/09/16 05:06:13;;;;;;;11.52;2.38;;;;;;;13.97;100.00;100560.19;5067795;28;20079;-76
2022/09/16 05:08:46;;;;;;;8.65;1.98;;;;;;;13.94;100.00;100563.06;5066867;28;20461;-74
2022/09/16 05:11:16;;;;;;;12.27;3.67;;;;;;;14.02;100.00;100562.50;5067718;28;20051;-74
2022/09/16 05:13:42;;;;;;;4.97;1.90;;;;;;;13.99;100.00;100571.69;5068147;28;20697;-74
2022/09/16 05:16:14;;;;;;;7.45;2.55;;;;;;;13.96;100.00;100555.06;5066390;28;20078;-76
2022/09/16 05:18:42;;;;;;;10.20;2.30;;;;;;;14.00;100.00;100561.38;5067756;28;20048;-74
2022/09/16 05:21:11;;;;;;;0.57;0.50;;;;;;;13.88;100.00;100557.19;5067085;28;20071;-74
2022/09/16 05:23:39;;;;;;;8.57;3.50;;;;;;;13.98;100.00;100559.00;5067918;28;20045;-73
2022/09/16 05:26:20;;;;;;;11.95;3.65;;;;;;;13.98;100.00;100564.56;5067673;28;20135;-74
2022/09/16 05:28:47;;;;;;;9.50;2.83;;;;;;;14.02;100.00;100556.94;5067917;28;20052;-75
2022/09/16 05:31:19;;;;;;;13.65;3.15;;;;;;;14.03;100.00;100557.72;5066951;28;20083;-74
2022/09/16 05:33:56;;;;;;;13.55;2.95;;;;;;;13.97;100.00;100562.97;5067618;28;20065;-76
2022/09/16 05:36:23;;;;;;;9.95;2.47;;;;;;;13.98;100.00;100559.00;5060828;28;20098;-75
2022/09/16 05:38:50;;;;;;;7.63;2.17;;;;;;;13.92;100.00;100565.47;5067453;28;20501;-76
2022/09/16 05:41:37;;;;;;;5.82;1.90;;;;;;;13.94;100.00;100568.63;5067144;28;20499;-75
2022/09/16 05:44:05;;;;;;;8.32;2.03;;;;;;;13.86;100.00;100567.13;5067220;28;20068;-75
2022/09/16 05:46:32;;;;;;;11.98;2.47;;;;;;;13.87;100.00;100558.38;5064760;28;20493;-76
2022/09/16 05:48:58;;;;;;;12.65;2.38;;;;;;;13.84;100.00;100564.78;5067528;28;20049;-76
2022/09/16 05:51:25;;;;;;;1.63;0.90;;;;;;;13.75;100.00;100564.56;5069806;28;20052;-75
2022/09/16 05:53:53;;;;;;;10.77;2.13;;;;;;;13.87;100.00;100568.75;5064696;28;20049;-75
2022/09/16 05:56:24;;;;;;;5.07;2.30;;;;;;;13.91;100.00;100563.91;5067248;28;20045;-75
2022/09/16 05:58:56;;;;;;;12.50;2.28;;;;;;;13.93;100.00;100567.03;5067472;28;20056;-75
2022/09/16 06:01:30;;;;;;;8.75;2.10;;;;;;;13.96;100.00;100564.19;5069072;28;20076;-76
2022/09/16 06:03:57;;;;;;;5.28;1.90;;;;;;;13.99;100.00;100566.13;5071433;28;20131;-75
2022/09/16 06:06:29;;;;;;;10.02;2.20;;;;;;;13.97;100.00;100570.56;5071237;28;20049;-76
2022/09/16 06:09:02;;;;;;;7.93;2.10;;;;;;;14.04;100.00;100571.19;5062942;28;20091;-73
2022/09/16 06:11:29;;;;;;;10.35;2.40;;;;;;;14.01;100.00;100565.72;5063888;28;20056;-74
2022/09/16 06:14:00;;;;;;;9.77;2.45;;;;;;;14.11;100.00;100570.31;5070398;28;20056;-74
2022/09/16 06:16:30;;;;;;;11.40;2.55;;;;;;;14.09;100.00;100579.06;5072249;28;20472;-74
2022/09/16 06:19:02;;;;;;;8.95;2.20;;;;;;;14.17;100.00;100577.72;5070196;28;20055;-74
2022/09/16 06:21:28;;;;;;;11.32;2.28;;;;;;;14.15;100.00;100574.59;5070983;28;20079;-74
2022/09/16 06:23:55;;;;;;;9.75;2.63;;;;;;;14.19;100.00;100575.31;5071092;28;20051;-77
2022/09/16 06:26:25;;;;;;;8.77;2.58;;;;;;;14.25;100.00;100581.19;5071280;28;20049;-75
2022/09/16 06:28:53;;;;;;;13.07;2.90;;;;;;;14.26;100.00;100577.19;5071853;28;20144;-74
2022/09/16 06:31:26;;;;;;;12.13;2.53;;;;;;;14.20;100.00;100574.09;5070276;28;20481;-74
2022/09/16 06:33:53;;;;;;;6.00;2.25;;;;;;;14.24;100.00;100576.84;5068109;28;20049;-77
2022/09/16 06:36:22;;;;;;;8.25;2.53;;;;;;;14.35;100.00;100577.44;5070887;28;20099;-76
2022/09/16 06:38:50;;;;;;;6.85;1.70;;;;;;;14.35;100.00;100583.78;5069838;28;20056;-76
2022/09/16 06:41:18;;;;;;;8.65;2.25;;;;;;;14.54;100.00;100579.44;5070729;28;20068;-75
2022/09/16 06:43:45;;;;;;;14.25;3.17;;;;;;;14.53;100.00;100581.47;5069213;28;20044;-76
2022/09/16 06:46:17;;;;;;;10.75;2.08;;;;;;;14.52;100.00;100582.66;5069551;28;20048;-75
2022/09/16 06:48:49;;;;;;;10.05;3.85;;;;;;;14.58;100.00;100580.94;5062732;28;20108;-73
2022/09/16 06:51:18;;;;;;;9.90;2.63;;;;;;;14.57;100.00;100584.97;5060775;28;20051;-72
2022/09/16 06:53:49;;;;;;;14.57;2.40;;;;;;;14.66;100.00;100576.03;5063011;28;20032;-71
2022/09/16 06:56:18;;;;;;;7.05;2.20;;;;;;;14.73;100.00;100587.03;5062022;28;20044;-69
2022/09/16 06:58:47;;;;;;;11.10;2.63;;;;;;;14.92;100.00;100589.81;5059715;28;20122;-71
2022/09/16 07:01:16;;;;;;;7.65;2.50;;;;;;;14.88;100.00;100583.53;5064695;28;20057;-70
2022/09/16 07:03:46;;;;;;;8.43;2.38;;;;;;;15.04;100.00;100585.59;5053493;28;20417;-71
2022/09/16 07:06:14;;;;;;;8.25;2.47;;;;;;;14.99;100.00;100588.88;5062014;28;20055;-71
2022/09/16 07:08:41;;;;;;;10.68;2.78;;;;;;;15.10;100.00;100578.28;5066154;28;20653;-71
2022/09/16 07:11:13;;;;;;;8.27;2.70;;;;;;;15.06;100.00;100575.56;5062115;28;20049;-70
2022/09/16 07:13:40;;;;;;;6.00;2.08;;;;;;;15.17;100.00;100586.50;5059189;28;20040;-71
2022/09/16 07:16:10;;;;;;;11.07;2.70;;;;;;;15.08;100.00;100592.66;5063672;28;20052;-72
2022/09/16 07:18:39;;;;;;;12.55;2.92;;;;;;;15.09;100.00;100593.44;5061188;28;20068;-70
2022/09/16 07:21:10;;;;;;;8.77;2.47;;;;;;;15.06;100.00;100592.28;5061208;28;20048;-72
2022/09/16 07:23:37;;;;;;;8.00;2.53;;;;;;;15.12;100.00;100593.34;5062484;28;20055;-71
2022/09/16 07:26:07;;;;;;;7.82;2.45;;;;;;;15.14;100.00;100596.50;5070396;28;20078;-69
2022/09/16 07:28:34;;;;;;;11.93;2.75;;;;;;;15.13;100.00;100599.72;5069386;28;20055;-69
2022/09/16 07:31:02;;;;;;;10.35;3.03;;;;;;;15.12;100.00;100596.16;5064541;28;20076;-69
2022/09/16 07:33:36;;;;;;;18.58;3.50;;;;;;;15.18;100.00;100597.22;5066002;28;20110;-69
2022/09/16 07:36:04;;;;;;;9.35;2.83;;;;;;;15.29;100.00;100588.63;5070449;28;20067;-69
2022/09/16 07:38:31;;;;;;;10.60;3.10;;;;;;;15.41;100.00;100597.13;5074436;28;20044;-70
2022/09/16 07:41:22;;;;;;;8.90;3.13;;;;;;;15.51;100.00;100600.88;5079074;28;20052;-69
2022/09/16 07:43:49;;;;;;;10.07;3.25;;;;;;;15.67;100.00;100600.13;5069914;28;20040;-69
2022/09/16 07:46:17;;;;;;;15.02;3.03;;;;;;;15.76;100.00;100603.09;5066180;28;20057;-70
2022/09/16 07:48:46;;;;;;;7.93;1.75;;;;;;;15.65;100.00;100602.59;5069507;28;20560;-68
2022/09/16 07:51:18;;;;;;;11.55;2.75;;;;;;;15.61;100.00;100602.66;5058466;28;20580;-72
2022/09/16 07:53:45;;;;;;;7.53;2.08;;;;;;;15.64;100.00;100610.16;5065933;28;20041;-73
2022/09/16 07:56:18;;;;;;;10.13;2.30;;;;;;;15.75;100.00;100593.16;5065141;28;20058;-70
2022/09/16 07:58:46;;;;;;;9.23;2.53;;;;;;;15.72;100.00;100605.97;5061699;28;20053;-67
2022/09/16 08:01:14;;;;;;;8.50;1.90;;;;;;;15.75;100.00;100609.88;5068911;28;20048;-71
2022/09/16 08:03:43;;;;;;;10.13;2.00;;;;;;;15.80;100.00;100607.38;5072284;28;20100;-71
2022/09/16 08:06:22;;;;;;;5.80;2.03;;;;;;;15.86;100.00;100607.66;5067328;28;20071;-74
2022/09/16 08:08:51;;;;;;;8.07;2.00;;;;;;;15.94;100.00;100609.03;5067579;28;20056;-70
2022/09/16 08:11:18;;;;;;;11.48;2.10;;;;;;;15.99;100.00;100611.31;5068468;28;20052;-68
2022/09/16 08:13:45;;;;;;;11.85;2.60;;;;;;;16.19;100.00;100604.38;5060747;28;20445;-70
2022/09/16 08:16:15;;;;;;;11.98;2.28;;;;;;;16.28;100.00;100606.56;5067790;28;20098;-70
2022/09/16 08:18:42;;;;;;;7.88;1.48;;;;;;;16.34;100.00;100607.59;5051341;28;20128;-69
2022/09/16 08:21:11;;;;;;;8.07;1.77;;;;;;;16.46;100.00;100610.50;5056023;28;20080;-70
2022/09/16 08:23:38;;;;;;;5.75;1.73;;;;;;;16.65;100.00;100608.78;5060212;28;20076;-70
2022/09/16 08:26:07;;;;;;;5.60;1.88;;;;;;;16.81;100.00;100609.50;5057273;28;20053;-69
2022/09/16 08:28:34;;;;;;;7.35;1.60;;;;;;;16.66;100.00;100610.34;5066517;28;20056;-69
2022/09/16 08:31:17;;;;;;;9.07;1.60;;;;;;;16.91;100.00;100618.84;5062533;28;20844;-70
2022/09/16 08:33:44;;;;;;;6.30;1.45;;;;;;;16.91;100.00;100614.00;5060962;28;20139;-71
2022/09/16 08:36:13;;;;;;;6.60;1.25;;;;;;;16.99;100.00;100615.41;5066723;28;20052;-68
2022/09/16 08:38:41;;;;;;;8.50;1.70;;;;;;;17.12;100.00;100613.41;5060901;28;20041;-70
2022/09/16 08:41:20;;;;;;;8.43;1.40;;;;;;;17.24;100.00;100618.22;5057594;28;20048;-70
2022/09/16 08:44:15;;;;;;;8.13;1.27;;;;;;;17.27;100.00;100617.34;5060944;28;20079;-69
2022/09/16 08:46:52;;;;;;;5.68;1.15;;;;;;;17.31;100.00;100615.22;5062285;28;20102;-71
2022/09/16 08:49:47;;;;;;;7.28;2.00;;;;;;;17.49;100.00;100623.13;5061786;28;20049;-70
2022/09/16 08:52:35;;;;;;;7.70;1.05;;;;;;;17.51;100.00;100629.03;5055621;28;20460;-66
2022/09/16 08:55:06;;;;;;;2.95;0.90;;;;;;;17.52;98.23;100639.78;5057971;28;21569;-71
2022/09/16 08:57:39;;;;;;;8.63;1.38;;;;;;;17.65;98.12;100639.81;5068303;28;20425;-71
2022/09/16 09:00:13;;;;;;;14.57;1.25;;;;;;;17.75;99.40;100631.06;5067641;28;20053;-72
2022/09/16 09:02:41;;;;;;;8.60;1.15;;;;;;;17.64;93.64;100625.03;5055847;28;20063;-72
2022/09/16 09:05:15;;;;;;;9.85;1.55;;;;;;;17.61;96.61;100625.13;5068029;28;20059;-72
2022/09/16 09:07:57;;;;;;;9.82;2.88;;;;;;;17.64;99.21;100627.03;5065253;28;20055;-71
2022/09/16 09:10:43;;;;;;;8.95;1.60;;;;;;;17.82;99.00;100622.44;5064230;28;20095;-69
2022/09/16 09:13:27;;;;;;;3.15;0.70;;;;;;;17.48;87.61;100618.72;5064697;28;20052;-70
2022/09/16 09:16:12;;;;;;;4.93;1.10;;;;;;;17.34;91.94;100621.94;5057694;28;20081;-70
2022/09/16 09:19:12;;;;;;;6.07;1.20;;;;;;;17.25;88.09;100627.41;5064472;28;20044;-70
2022/09/16 09:21:57;;;;;;;6.75;1.20;;;;;;;17.15;86.30;100634.09;4995056;28;20054;-69
2022/09/16 09:24:33;;;;;;;5.60;1.17;;;;;;;17.37;89.92;100632.22;5051863;28;20587;-70
2022/09/16 09:27:06;;;;;;;;;;;;;;;17.66;92.78;100622.53;5067054;28;20309;-68
2022/09/16 09:29:58;;;;;;;2.67;0.80;;;;;;;17.66;88.21;100630.19;5058913;28;19924;-72
2022/09/16 09:32:39;;;;;;;7.30;1.40;;;;;;;17.92;90.34;100628.91;5064643;28;20048;-69
2022/09/16 09:35:24;;;;;;;4.03;1.23;;;;;;;18.12;89.39;100626.66;5059194;28;20040;-71
2022/09/16 09:38:19;;;;;;;1.92;1.58;;;;;;;17.92;85.27;100623.31;5061574;28;20098;-69
2022/09/16 09:41:31;;;;;;;1.25;0.77;;;;;;;17.67;85.51;100618.53;5060275;28;20048;-72
2022/09/16 09:44:00;;;;;;;2.55;0.50;;;;;;;17.41;84.18;100616.13;5061350;28;20052;-72
2022/09/16 09:46:43;;;;;;;9.07;1.08;;;;;;;17.41;86.89;100616.13;5063464;28;20045;-73
2022/09/16 09:49:23;;;;;;;2.50;0.82;;;;;;;17.38;85.93;100605.84;5063185;28;20048;-71
2022/09/16 09:51:55;;;;;;;5.00;0.85;;;;;;;17.74;86.53;100603.53;5061197;28;20105;-69
2022/09/16 09:54:28;;;;;;;4.07;1.00;;;;;;;17.82;83.37;100604.88;5060478;28;20048;-67
2022/09/16 09:57:02;;;;;;;6.00;1.30;;;;;;;18.10;83.40;100600.34;5061334;28;20067;-69
2022/09/16 09:59:44;;;;;;;7.60;1.40;;;;;;;18.34;80.46;100595.91;5060680;28;20376;-70
2022/09/16 10:02:16;;;;;;;3.55;0.68;;;;;;;18.20;73.78;100599.19;5050132;28;20045;-70
2022/09/16 10:04:43;;;;;;;7.07;1.10;;;;;;;18.32;73.79;100596.38;5052769;28;20049;-69
2022/09/16 10:07:13;;;;;;;4.75;1.10;;;;;;;18.17;74.24;100595.28;5062324;28;20070;-70
2022/09/16 10:09:50;;;;;;;4.32;0.60;;;;;;;17.85;74.20;100596.34;5059923;28;20143;-71
2022/09/16 10:12:30;;;;;;;10.65;1.10;;;;;;;17.98;75.98;100607.53;5061167;28;20048;-70
2022/09/16 10:14:57;;;;;;;10.10;1.30;;;;;;;18.23;75.82;100596.28;5059291;28;20445;-70
2022/09/16 10:17:25;;;;;;;6.45;1.00;;;;;;;18.26;75.79;100603.75;5060651;28;20052;-70
2022/09/16 10:19:57;;;;;;;4.32;0.88;;;;;;;18.10;77.03;100606.75;5060129;28;20052;-71
2022/09/16 10:22:29;;;;;;;5.78;1.08;;;;;;;18.18;79.71;100610.06;5059269;28;20057;-70
2022/09/16 10:25:23;;;;;;;8.75;1.60;;;;;;;18.05;81.24;100603.72;5064523;28;20044;-71
2022/09/16 10:28:00;;;;;;;1.90;0.55;;;;;;;17.61;79.11;100613.94;5063870;28;20119;-69
2022/09/16 10:30:32;;;;;;;3.38;1.20;;;;;;;17.60;81.77;100604.78;5065211;28;20049;-69
2022/09/16 10:33:12;;;;;;;16.02;1.40;;;;;;;17.30;82.34;100604.47;5059929;28;20049;-70
2022/09/16 10:35:42;;;;;;;8.57;1.15;;;;;;;17.51;83.13;100599.06;5059777;28;20173;-71
2022/09/16 10:38:11;;;;;;;8.68;1.45;;;;;;;17.61;85.88;100606.34;5060058;28;20098;-70
2022/09/16 10:40:50;;;;;;;11.50;2.00;;;;;;;18.00;84.97;100599.47;5057094;28;20059;-70
2022/09/16 10:43:17;;;;;;;9.00;1.58;;;;;;;18.37;82.83;100609.84;5058117;28;21858;-70
2022/09/16 10:45:49;;;;;;;1.67;0.40;;;;;;;18.33;76.06;100600.75;5061233;28;20045;-70
2022/09/16 10:48:19;;;;;;;10.15;1.30;;;;;;;18.81;77.16;100610.66;5067717;28;20072;-69
2022/09/16 10:50:59;;;;;;;7.88;1.38;;;;;;;18.81;80.36;100600.25;5063588;28;20056;-70
2022/09/16 10:53:37;;;;;;;4.55;0.73;;;;;;;18.68;82.72;100612.75;5061290;28;20103;-69
2022/09/16 10:56:20;;;;;;;2.70;0.77;;;;;;;18.08;70.80;100614.03;5061328;28;20052;-70
2022/09/16 10:58:47;;;;;;;4.55;0.98;;;;;;;18.04;78.47;100616.94;5063710;28;20052;-68
2022/09/16 11:01:41;;;;;;;8.20;1.10;;;;;;;17.85;77.46;100603.97;5061756;28;20053;-70
2022/09/16 11:04:31;;;;;;;4.85;1.02;;;;;;;17.86;78.85;100605.53;5063045;28;20049;-69
2022/09/16 11:07:24;;;;;;;3.88;0.70;;;;;;;18.05;82.56;100600.94;5053900;28;20532;-72
2022/09/16 11:09:59;;;;;;;6.40;1.02;;;;;;;18.51;83.60;100594.53;5064312;28;20102;-70
2022/09/16 11:12:29;;;;;;;8.20;1.05;;;;;;;18.77;80.13;100593.19;5062115;28;20752;-69
2022/09/16 11:15:16;;;;;;;4.47;0.65;;;;;;;19.05;79.40;100592.94;5050193;28;20048;-70
2022/09/16 11:17:51;;;;;;;4.57;0.82;;;;;;;19.30;78.57;100586.41;5036072;28;20052;-71
2022/09/16 11:20:42;;;;;;;5.80;0.95;;;;;;;19.56;72.70;100588.56;5038897;28;20209;-70
2022/09/16 11:23:43;;;;;;;4.65;1.00;;;;;;;20.10;68.10;100588.72;5037298;28;22030;-71
2022/09/16 11:26:27;;;;;;;7.93;1.00;;;;;;;20.29;64.62;100573.47;5038469;28;20044;-70
2022/09/16 11:29:12;;;;;;;5.95;1.10;;;;;;;20.29;59.34;100572.72;5046149;28;20060;-70
2022/09/16 11:31:39;;;;;;;6.72;1.33;;;;;;;20.29;59.40;100567.09;5049908;28;20052;-72
2022/09/16 11:34:24;;;;;;;4.13;0.73;;;;;;;20.13;59.70;100565.34;5048064;28;20137;-71
2022/09/16 11:37:00;;;;;;;11.18;1.35;;;;;;;20.20;60.94;100584.72;5043356;28;20056;-70
2022/09/16 11:39:45;;;;;;;4.40;1.10;;;;;;;20.02;60.10;100598.69;5039577;28;20106;-70
2022/09/16 11:42:29;;;;;;;6.78;1.13;;;;;;;20.02;57.70;100598.69;5042240;28;20569;-72
2022/09/16 11:45:26;;;;;;;7.47;1.10;;;;;;;19.77;57.44;100596.13;5040940;28;20502;-71
2022/09/16 11:48:11;;;;;;;8.05;1.15;;;;;;;19.77;61.80;100598.94;5042851;28;20053;-73
2022/09/16 11:50:41;;;;;;;5.77;1.20;;;;;;;19.70;62.57;100602.03;5042340;28;20055;-72